Time;durP1;ratioP1;P1;durP2;ratioP2;P2;SDS_P1;SDS_P2;PMS_P1;PMS_P2;Temp;Humidity;BMP_temperature;BMP_pressure;BME280_temperature;BME280_humidity;BME280_pressure;Samples;Min_cycle;Max_cycle;Signal;HPM_P1;HPM_P2
2022/07/13 00:02:00;;;;;;;0.93;0.47;;;20.10;63.50;;;;;;5061644;28;20067;-69
2022/07/13 00:04:25;;;;;;;2.40;0.30;;;20.00;63.50;;;;;;5068878;28;20151;-69
2022/07/13 00:06:51;;;;;;;1.00;0.30;;;20.00;63.40;;;;;;5051067;28;20029;-69
2022/07/13 00:09:17;;;;;;;0.85;0.20;;;20.00;63.20;;;;;;5065638;28;20036;-68
2022/07/13 00:11:43;;;;;;;0.63;0.30;;;20.00;63.30;;;;;;5066462;28;20036;-67
2022/07/13 00:14:08;;;;;;;0.25;0.20;;;20.00;63.50;;;;;;5066373;28;21743;-68
2022/07/13 00:16:34;;;;;;;0.20;0.20;;;20.00;63.50;;;;;;5063164;28;20901;-68
2022/07/13 00:18:59;;;;;;;0.70;0.28;;;20.00;63.10;;;;;;5061301;28;20120;-68
2022/07/13 00:21:25;;;;;;;0.40;0.28;;;20.00;63.40;;;;;;5066891;28;20048;-69
2022/07/13 00:23:51;;;;;;;1.05;0.40;;;20.00;63.20;;;;;;5063017;28;20028;-68
2022/07/13 00:26:16;;;;;;;0.80;0.20;;;20.00;63.10;;;;;;5067431;28;20068;-68
2022/07/13 00:28:42;;;;;;;0.20;0.10;;;20.00;63.30;;;;;;5070757;28;20026;-69
2022/07/13 00:31:08;;;;;;;1.05;0.30;;;20.00;63.20;;;;;;5062350;28;20120;-69
2022/07/13 00:33:33;;;;;;;0.30;0.30;;;19.90;63.00;;;;;;5065812;28;20098;-68
2022/07/13 00:35:59;;;;;;;7.03;0.30;;;19.90;63.30;;;;;;5058971;28;20114;-69
2022/07/13 00:38:25;;;;;;;0.60;0.20;;;19.90;63.40;;;;;;5072410;28;20460;-69
2022/07/13 00:40:50;;;;;;;3.05;0.30;;;19.90;63.20;;;;;;5062793;28;20043;-69
2022/07/13 00:43:16;;;;;;;1.27;0.30;;;19.90;63.50;;;;;;5063847;28;20040;-68
2022/07/13 00:45:42;;;;;;;0.95;0.20;;;19.90;63.10;;;;;;5061989;28;20511;-69
2022/07/13 00:48:08;;;;;;;0.30;0.10;;;19.80;63.30;;;;;;5063330;28;20399;-69
2022/07/13 00:50:33;;;;;;;0.22;0.10;;;19.80;63.40;;;;;;5059581;28;20036;-69
2022/07/13 00:52:59;;;;;;;0.47;0.20;;;19.80;63.30;;;;;;5064440;28;20036;-68
2022/07/13 00:55:25;;;;;;;1.58;0.30;;;19.80;63.20;;;;;;5066170;28;20052;-69
2022/07/13 00:57:51;;;;;;;0.68;0.28;;;19.80;63.30;;;;;;5059021;28;20051;-70
2022/07/13 01:00:17;;;;;;;0.50;0.20;;;19.80;63.70;;;;;;5057082;28;20070;-69
2022/07/13 01:02:45;;;;;;;0.50;0.20;;;19.70;63.70;;;;;;5065195;28;20054;-68
2022/07/13 01:05:12;;;;;;;0.57;0.22;;;19.70;63.90;;;;;;5062004;28;20039;-68
2022/07/13 01:07:38;;;;;;;0.70;0.30;;;19.70;63.80;;;;;;5048407;28;20044;-69
2022/07/13 01:10:06;;;;;;;0.43;0.10;;;19.70;63.50;;;;;;5063931;28;20038;-69
2022/07/13 01:12:33;;;;;;;0.50;0.30;;;19.70;63.30;;;;;;5065884;28;20028;-69
2022/07/13 01:14:59;;;;;;;0.47;0.13;;;19.70;63.50;;;;;;5061548;28;20106;-68
2022/07/13 01:17:26;;;;;;;0.28;0.22;;;19.70;63.70;;;;;;5062151;28;20115;-69
2022/07/13 01:19:52;;;;;;;0.73;0.30;;;19.70;63.40;;;;;;5063681;28;20035;-69
2022/07/13 01:22:25;;;;;;;0.90;0.70;;;19.60;63.50;;;;;;5066523;28;20047;-69
2022/07/13 01:24:52;;;;;;;0.77;0.25;;;19.60;63.80;;;;;;5063579;28;20722;-69
2022/07/13 01:27:19;;;;;;;0.65;0.20;;;19.70;64.00;;;;;;5067554;28;20179;-69
2022/07/13 01:29:45;;;;;;;0.55;0.30;;;19.60;64.30;;;;;;5046531;28;20490;-70
2022/07/13 01:32:10;;;;;;;0.40;0.25;;;19.60;64.20;;;;;;5065243;28;20039;-69
2022/07/13 01:34:36;;;;;;;0.38;0.20;;;19.50;64.20;;;;;;5063637;28;20108;-69
2022/07/13 01:37:03;;;;;;;1.77;0.20;;;19.50;64.30;;;;;;5063586;28;20070;-69
2022/07/13 01:39:28;;;;;;;1.08;0.52;;;19.50;64.20;;;;;;5062195;28;20139;-69
2022/07/13 01:41:54;;;;;;;1.52;0.32;;;19.50;64.10;;;;;;5067756;28;20450;-69
2022/07/13 01:44:20;;;;;;;1.23;0.28;;;19.50;63.80;;;;;;5061531;28;20040;-69
2022/07/13 01:46:46;;;;;;;0.32;0.22;;;19.50;63.80;;;;;;5043894;28;22053;-69
2022/07/13 01:49:11;;;;;;;0.32;0.20;;;19.50;64.10;;;;;;5049345;28;20043;-69
2022/07/13 01:51:38;;;;;;;0.52;0.20;;;19.50;64.50;;;;;;5066041;28;20031;-69
2022/07/13 01:54:04;;;;;;;1.13;0.40;;;19.30;64.40;;;;;;5069119;28;20044;-69
2022/07/13 01:56:30;;;;;;;3.03;0.20;;;19.30;64.60;;;;;;5065550;28;20036;-70
2022/07/13 01:58:55;;;;;;;0.57;0.30;;;19.20;64.60;;;;;;5064349;28;20043;-69
2022/07/13 02:01:21;;;;;;;0.85;0.45;;;19.20;64.80;;;;;;5041737;28;20492;-69
2022/07/13 02:03:47;;;;;;;2.20;0.30;;;19.10;64.60;;;;;;5068548;28;20489;-69
2022/07/13 02:06:12;;;;;;;0.98;0.40;;;19.10;64.80;;;;;;5066476;28;20113;-69
2022/07/13 02:08:38;;;;;;;1.75;0.47;;;19.10;65.60;;;;;;5064789;28;20133;-69
2022/07/13 02:11:04;;;;;;;1.13;0.30;;;19.10;64.90;;;;;;5066133;28;20066;-69
2022/07/13 02:13:30;;;;;;;0.63;0.30;;;19.10;64.80;;;;;;5067023;28;20130;-69
2022/07/13 02:15:55;;;;;;;2.13;0.22;;;19.10;64.80;;;;;;5066860;28;20035;-69
2022/07/13 02:18:21;;;;;;;1.42;0.30;;;19.00;64.50;;;;;;5062495;28;20036;-69
2022/07/13 02:20:47;;;;;;;0.98;0.30;;;19.00;64.60;;;;;;5065117;28;20048;-69
2022/07/13 02:23:12;;;;;;;0.22;0.17;;;19.00;64.30;;;;;;5073342;28;20043;-69
2022/07/13 02:25:38;;;;;;;0.80;0.22;;;19.10;63.60;;;;;;5062088;28;20060;-69
2022/07/13 02:28:07;;;;;;;0.55;0.38;;;19.10;63.50;;;;;;5067010;28;20048;-69
2022/07/13 02:30:33;;;;;;;1.58;0.30;;;19.10;63.50;;;;;;5066135;28;20536;-69
2022/07/13 02:32:59;;;;;;;0.98;0.30;;;19.10;63.00;;;;;;5067926;28;20043;-70
2022/07/13 02:35:25;;;;;;;0.98;0.20;;;19.20;62.90;;;;;;5067992;28;20040;-69
2022/07/13 02:37:51;;;;;;;0.30;0.20;;;19.20;62.60;;;;;;5070147;28;20540;-69
2022/07/13 02:40:17;;;;;;;0.38;0.28;;;19.30;62.00;;;;;;5068972;28;20089;-69
2022/07/13 02:42:43;;;;;;;1.75;0.32;;;19.30;61.80;;;;;;5065250;28;20139;-69
2022/07/13 02:45:08;;;;;;;0.20;0.13;;;19.40;62.00;;;;;;5066543;28;20036;-70
2022/07/13 02:47:34;;;;;;;0.28;0.20;;;19.40;61.50;;;;;;5054277;28;20064;-68
2022/07/13 02:50:00;;;;;;;0.88;0.20;;;19.50;61.60;;;;;;5066375;28;20052;-69
2022/07/13 02:52:26;;;;;;;1.23;0.38;;;19.50;60.90;;;;;;5069658;28;20481;-69
2022/07/13 02:54:51;;;;;;;1.33;0.30;;;19.50;60.50;;;;;;5070182;28;20063;-69
2022/07/13 02:57:17;;;;;;;0.63;0.20;;;19.60;60.60;;;;;;5070335;28;20042;-70
2022/07/13 02:59:43;;;;;;;3.70;0.30;;;19.60;60.90;;;;;;5072811;28;20028;-69
2022/07/13 03:02:09;;;;;;;1.00;0.40;;;19.60;60.00;;;;;;5065557;28;20068;-69
2022/07/13 03:04:35;;;;;;;3.53;0.35;;;19.60;59.80;;;;;;5071243;28;20579;-70
2022/07/13 03:07:01;;;;;;;1.15;0.30;;;19.60;60.20;;;;;;5063561;28;20508;-69
2022/07/13 03:09:27;;;;;;;2.20;0.30;;;19.70;60.40;;;;;;5070648;28;20480;-70
2022/07/13 03:11:53;;;;;;;0.50;0.20;;;19.70;60.60;;;;;;5061506;28;20553;-69
2022/07/13 03:14:19;;;;;;;1.38;0.35;;;19.70;60.50;;;;;;5072044;28;20036;-69
2022/07/13 03:16:45;;;;;;;0.80;0.30;;;19.70;60.60;;;;;;5068301;28;20029;-69
2022/07/13 03:19:11;;;;;;;2.83;0.30;;;19.70;60.70;;;;;;5068562;28;20036;-70
2022/07/13 03:21:37;;;;;;;0.30;0.30;;;19.70;61.00;;;;;;5062277;28;20485;-69
2022/07/13 03:24:03;;;;;;;0.60;0.35;;;19.70;61.10;;;;;;5068569;28;20044;-69
2022/07/13 03:26:29;;;;;;;0.65;0.30;;;19.60;61.30;;;;;;5045710;28;20285;-69
2022/07/13 03:28:55;;;;;;;1.55;0.32;;;19.60;61.10;;;;;;5067757;28;20931;-69
2022/07/13 03:31:20;;;;;;;2.10;0.22;;;19.70;61.20;;;;;;5064909;28;20442;-69
2022/07/13 03:33:47;;;;;;;1.65;0.30;;;19.70;60.70;;;;;;5067134;28;20052;-65
2022/07/13 03:36:13;;;;;;;0.20;0.20;;;19.80;60.90;;;;;;5066593;28;20047;-69
2022/07/13 03:38:38;;;;;;;0.75;0.40;;;19.80;61.10;;;;;;5068412;28;20024;-68
2022/07/13 03:41:04;;;;;;;4.43;0.43;;;19.80;60.90;;;;;;5066998;28;20548;-69
2022/07/13 03:43:30;;;;;;;0.75;0.28;;;19.80;61.10;;;;;;5065736;28;20050;-68
2022/07/13 03:45:57;;;;;;;1.17;0.40;;;19.90;60.60;;;;;;5067046;28;20547;-69
2022/07/13 03:48:22;;;;;;;0.57;0.40;;;19.90;60.70;;;;;;5068787;28;20039;-69
2022/07/13 03:50:48;;;;;;;2.80;0.45;;;20.00;61.00;;;;;;5066585;28;20066;-68
2022/07/13 03:53:15;;;;;;;0.45;0.43;;;20.00;61.50;;;;;;5062454;28;20086;-69
2022/07/13 03:55:42;;;;;;;1.23;0.40;;;20.00;60.80;;;;;;5072582;28;20047;-68
2022/07/13 03:58:09;;;;;;;2.80;0.47;;;20.00;61.00;;;;;;5059294;28;20044;-69
2022/07/13 04:00:34;;;;;;;0.77;0.40;;;20.00;61.10;;;;;;5066561;28;20029;-69
2022/07/13 04:03:00;;;;;;;1.35;0.30;;;20.00;61.60;;;;;;5069510;28;20051;-69
2022/07/13 04:05:26;;;;;;;2.03;0.20;;;20.10;61.60;;;;;;5068290;28;20598;-68
2022/07/13 04:07:52;;;;;;;0.30;0.30;;;20.10;61.50;;;;;;5066333;28;20252;-68
2022/07/13 04:10:18;;;;;;;3.33;0.35;;;20.20;60.90;;;;;;5068359;28;20071;-69
2022/07/13 04:12:44;;;;;;;1.05;0.25;;;20.20;61.20;;;;;;5073448;28;20075;-68
2022/07/13 04:15:11;;;;;;;0.98;0.30;;;20.20;61.40;;;;;;5067237;28;20036;-70
2022/07/13 04:17:37;;;;;;;0.25;0.22;;;20.30;61.70;;;;;;5068519;28;20036;-68
2022/07/13 04:20:04;;;;;;;0.47;0.30;;;20.30;61.40;;;;;;5073972;28;20641;-68
2022/07/13 04:22:29;;;;;;;0.50;0.22;;;20.30;61.80;;;;;;5065747;28;20115;-68
2022/07/13 04:24:55;;;;;;;0.43;0.30;;;20.40;61.80;;;;;;5064395;28;20510;-68
2022/07/13 04:27:21;;;;;;;1.67;0.25;;;20.40;61.90;;;;;;5052379;28;20462;-68
2022/07/13 04:29:46;;;;;;;0.68;0.35;;;20.40;61.90;;;;;;5070376;28;20090;-69
2022/07/13 04:32:12;;;;;;;0.38;0.32;;;20.40;62.30;;;;;;5065528;28;20559;-69
2022/07/13 04:34:38;;;;;;;0.55;0.30;;;20.50;62.70;;;;;;5072990;28;20051;-69
2022/07/13 04:37:04;;;;;;;1.90;0.20;;;20.50;61.30;;;;;;5065534;28;20036;-69
2022/07/13 04:39:30;;;;;;;1.23;0.30;;;20.60;62.30;;;;;;5066544;28;20114;-69
2022/07/13 04:41:55;;;;;;;1.70;0.47;;;20.60;62.00;;;;;;5064425;28;20070;-68
2022/07/13 04:44:21;;;;;;;4.30;0.40;;;20.70;62.00;;;;;;5066889;28;20799;-69
2022/07/13 04:46:47;;;;;;;0.73;0.30;;;20.80;63.20;;;;;;5042709;28;20609;-68
2022/07/13 04:49:12;;;;;;;0.90;0.38;;;20.80;62.40;;;;;;5065628;28;20408;-68
2022/07/13 04:51:38;;;;;;;0.20;0.20;;;20.90;63.40;;;;;;5052669;28;20079;-68
2022/07/13 04:54:04;;;;;;;3.65;0.40;;;20.90;62.50;;;;;;5066747;28;20515;-69
2022/07/13 04:56:30;;;;;;;6.43;0.45;;;21.00;62.80;;;;;;5043587;28;20048;-70
2022/07/13 04:58:55;;;;;;;2.33;0.40;;;21.10;63.20;;;;;;5067917;28;20123;-69
2022/07/13 05:01:21;;;;;;;13.70;0.68;;;21.10;63.20;;;;;;5062733;28;20136;-69
2022/07/13 05:03:47;;;;;;;0.65;0.35;;;21.20;63.10;;;;;;5059395;28;20048;-68
2022/07/13 05:06:14;;;;;;;2.15;0.30;;;21.20;62.20;;;;;;5072642;28;20143;-71
2022/07/13 05:08:40;;;;;;;6.95;0.50;;;21.20;63.30;;;;;;5067246;28;20041;-70
2022/07/13 05:11:08;;;;;;;0.80;0.20;;;21.40;63.50;;;;;;5071984;28;20401;-71
2022/07/13 05:13:33;;;;;;;1.38;0.32;;;21.50;62.70;;;;;;5069419;28;20604;-70
2022/07/13 05:15:59;;;;;;;4.10;0.40;;;21.60;62.50;;;;;;5051929;28;20100;-70
2022/07/13 05:18:25;;;;;;;0.30;0.30;;;21.70;62.30;;;;;;5064183;28;20063;-69
2022/07/13 05:20:50;;;;;;;2.53;0.40;;;21.80;60.60;;;;;;5066658;28;20721;-70
2022/07/13 05:23:16;;;;;;;3.35;0.20;;;21.80;60.90;;;;;;5070488;28;20064;-70
2022/07/13 05:25:42;;;;;;;0.52;0.30;;;21.90;61.90;;;;;;5071270;28;20107;-69
2022/07/13 05:28:07;;;;;;;0.80;0.60;;;21.90;61.80;;;;;;5070752;28;22111;-69
2022/07/13 05:30:33;;;;;;;0.63;0.35;;;21.60;61.50;;;;;;5065521;28;20086;-69
2022/07/13 05:32:59;;;;;;;1.15;0.40;;;21.50;63.00;;;;;;5068433;28;20037;-69
2022/07/13 05:35:24;;;;;;;2.47;0.35;;;21.60;62.60;;;;;;5068282;28;20063;-70
2022/07/13 05:37:50;;;;;;;3.08;0.52;;;21.60;62.40;;;;;;5046494;28;20467;-69
2022/07/13 05:40:16;;;;;;;0.82;0.32;;;21.60;62.80;;;;;;5067980;28;20139;-69
2022/07/13 05:42:41;;;;;;;1.63;0.40;;;21.60;62.90;;;;;;5068479;28;20048;-70
2022/07/13 05:45:08;;;;;;;2.15;0.50;;;21.50;64.40;;;;;;5063424;28;20484;-70
2022/07/13 05:47:33;;;;;;;2.33;0.55;;;21.50;63.60;;;;;;5066156;28;20037;-70
2022/07/13 05:49:59;;;;;;;0.85;0.50;;;21.50;64.20;;;;;;5064696;28;20160;-69
2022/07/13 05:52:25;;;;;;;0.60;0.40;;;21.30;63.70;;;;;;5062460;28;20513;-69
2022/07/13 05:54:51;;;;;;;7.35;0.60;;;21.20;64.80;;;;;;5070269;28;20043;-69
2022/07/13 05:57:16;;;;;;;1.25;0.40;;;21.10;64.60;;;;;;5062610;28;20032;-68
2022/07/13 05:59:42;;;;;;;9.02;1.33;;;21.10;65.80;;;;;;5064951;28;20042;-69
2022/07/13 06:02:08;;;;;;;0.30;0.30;;;21.10;67.20;;;;;;5061227;28;20060;-69
2022/07/13 06:04:34;;;;;;;1.27;0.57;;;21.10;66.60;;;;;;5066324;28;20048;-69
2022/07/13 06:06:59;;;;;;;0.63;0.38;;;21.10;66.70;;;;;;5065748;28;20487;-69
2022/07/13 06:09:25;;;;;;;4.15;0.43;;;21.10;67.00;;;;;;5063627;28;20037;-68
2022/07/13 06:11:51;;;;;;;2.25;0.50;;;21.00;68.30;;;;;;5063365;28;20105;-69
2022/07/13 06:14:16;;;;;;;4.57;0.55;;;21.00;66.50;;;;;;5061904;28;20071;-67
2022/07/13 06:16:42;;;;;;;5.72;0.50;;;21.20;66.10;;;;;;5064933;28;20048;-68
2022/07/13 06:19:08;;;;;;;3.80;0.40;;;21.50;65.40;;;;;;5053541;28;20033;-68
2022/07/13 06:21:33;;;;;;;3.13;0.40;;;21.80;63.70;;;;;;5067437;28;20611;-68
2022/07/13 06:23:59;;;;;;;1.42;0.60;;;22.00;63.40;;;;;;5067660;28;20066;-68
2022/07/13 06:26:25;;;;;;;1.10;0.40;;;22.20;62.20;;;;;;5065830;28;20040;-67
2022/07/13 06:28:50;;;;;;;0.88;0.30;;;22.30;60.90;;;;;;5045852;28;20193;-69
2022/07/13 06:31:16;;;;;;;3.72;0.30;;;22.40;61.90;;;;;;5065435;28;20036;-68
2022/07/13 06:33:42;;;;;;;3.72;0.60;;;22.60;62.90;;;;;;5070362;28;20036;-68
2022/07/13 06:36:08;;;;;;;2.17;0.30;;;22.70;60.80;;;;;;5071612;28;20036;-67
2022/07/13 06:38:34;;;;;;;0.35;0.30;;;22.70;59.80;;;;;;5073686;28;20032;-69
2022/07/13 06:41:00;;;;;;;1.20;0.43;;;22.70;60.40;;;;;;5066579;28;20035;-70
2022/07/13 06:43:26;;;;;;;0.88;0.32;;;22.70;61.40;;;;;;5068095;28;20418;-69
2022/07/13 06:45:51;;;;;;;1.55;0.30;;;22.70;62.10;;;;;;5060176;28;20143;-65
2022/07/13 06:48:17;;;;;;;8.70;1.70;;;22.70;61.40;;;;;;5065449;28;20512;-64
2022/07/13 06:50:43;;;;;;;6.15;0.73;;;22.80;61.70;;;;;;5062266;28;20132;-65
2022/07/13 06:53:09;;;;;;;1.55;0.40;;;23.00;61.20;;;;;;5065009;28;20040;-68
2022/07/13 06:55:34;;;;;;;0.47;0.30;;;23.10;60.80;;;;;;5062168;28;20028;-67
2022/07/13 06:58:00;;;;;;;1.25;0.43;;;23.20;61.00;;;;;;5064609;28;20047;-67
2022/07/13 07:00:26;;;;;;;1.85;0.43;;;23.40;60.20;;;;;;5067864;28;20406;-67
2022/07/13 07:02:52;;;;;;;2.47;0.50;;;23.40;59.90;;;;;;5042434;28;20053;-69
2022/07/13 07:05:17;;;;;;;0.90;0.40;;;23.30;59.70;;;;;;5065465;28;20511;-67
2022/07/13 07:07:43;;;;;;;0.65;0.30;;;23.40;60.70;;;;;;5052102;28;20439;-68
2022/07/13 07:10:10;;;;;;;2.80;0.60;;;23.30;59.30;;;;;;5063016;28;20040;-67
2022/07/13 07:12:36;;;;;;;0.55;0.20;;;23.40;60.10;;;;;;5056499;28;20029;-69
2022/07/13 07:15:03;;;;;;;0.80;0.40;;;23.40;59.30;;;;;;5069065;28;20033;-68
2022/07/13 07:17:29;;;;;;;3.05;0.50;;;23.40;59.30;;;;;;5076016;28;20036;-68
2022/07/13 07:19:59;;;;;;;0.35;0.32;;;23.50;59.50;;;;;;5073315;28;20036;-68
2022/07/13 07:22:25;;;;;;;0.75;0.35;;;23.50;58.60;;;;;;5063209;28;20132;-69
2022/07/13 07:24:51;;;;;;;1.17;0.40;;;23.60;58.70;;;;;;5063586;28;20040;-70
2022/07/13 07:27:17;;;;;;;1.00;0.50;;;23.70;58.00;;;;;;5071038;28;20040;-69
2022/07/13 07:29:43;;;;;;;1.17;0.50;;;23.70;58.80;;;;;;5067410;28;20126;-70
2022/07/13 07:32:08;;;;;;;0.90;0.50;;;23.80;57.50;;;;;;5062769;28;20069;-68
2022/07/13 07:34:34;;;;;;;1.38;0.40;;;23.90;57.40;;;;;;5070093;28;20043;-68
2022/07/13 07:37:00;;;;;;;0.77;0.38;;;23.90;57.30;;;;;;5064176;28;20097;-68
2022/07/13 07:39:26;;;;;;;2.90;0.63;;;24.00;58.40;;;;;;5075450;28;20103;-69
2022/07/13 07:41:53;;;;;;;2.20;0.40;;;24.10;58.40;;;;;;5068651;28;20125;-66
2022/07/13 07:44:18;;;;;;;1.00;0.32;;;24.10;58.30;;;;;;5047945;28;20491;-66
2022/07/13 07:46:45;;;;;;;0.70;0.38;;;24.20;58.30;;;;;;5066192;28;20044;-66
2022/07/13 07:49:10;;;;;;;1.13;0.30;;;24.30;58.10;;;;;;5062790;28;20032;-67
2022/07/13 07:51:36;;;;;;;2.17;0.50;;;24.50;57.40;;;;;;5060222;28;20029;-67
2022/07/13 07:54:02;;;;;;;1.27;0.52;;;24.40;57.60;;;;;;5053843;28;20064;-67
2022/07/13 07:56:28;;;;;;;2.28;0.38;;;24.50;58.30;;;;;;5071785;28;20024;-68
2022/07/13 07:58:53;;;;;;;0.80;0.52;;;24.50;59.60;;;;;;5065730;28;20460;-67
2022/07/13 08:01:19;;;;;;;0.75;0.40;;;24.60;57.90;;;;;;5060355;28;20721;-68
2022/07/13 08:03:45;;;;;;;0.47;0.40;;;24.70;57.10;;;;;;5062581;28;20191;-67
2022/07/13 08:06:11;;;;;;;1.33;0.40;;;24.60;57.50;;;;;;5065191;28;20040;-67
2022/07/13 08:08:38;;;;;;;2.20;0.40;;;24.70;57.60;;;;;;5065378;28;20028;-68
2022/07/13 08:11:04;;;;;;;1.73;0.60;;;24.70;57.30;;;;;;5068058;28;20039;-66
2022/07/13 08:13:30;;;;;;;1.38;0.50;;;24.80;56.80;;;;;;5065377;28;20037;-68
2022/07/13 08:15:56;;;;;;;1.63;0.52;;;24.90;55.70;;;;;;5067784;28;20051;-68
2022/07/13 08:18:22;;;;;;;0.63;0.40;;;24.80;56.10;;;;;;5063185;28;20044;-67
2022/07/13 08:20:47;;;;;;;4.05;0.43;;;24.80;55.80;;;;;;5062668;28;20039;-67
2022/07/13 08:25:57;;;;;;;3.05;0.50;;;24.80;56.10;;;;;;5066810;28;20074;-68
2022/07/13 08:28:23;;;;;;;2.47;0.52;;;24.80;56.90;;;;;;5061818;28;20478;-68
2022/07/13 08:30:49;;;;;;;0.82;0.50;;;25.00;57.20;;;;;;5065922;28;20085;-68
2022/07/13 08:33:15;;;;;;;2.63;0.32;;;25.10;56.10;;;;;;5063041;28;20743;-67
2022/07/13 08:38:43;;;;;;;4.22;0.40;;;25.20;56.50;;;;;;5066115;28;20400;-67
2022/07/13 08:41:08;;;;;;;4.53;0.40;;;25.20;56.00;;;;;;5065285;28;20067;-63
2022/07/13 08:43:34;;;;;;;0.75;0.40;;;25.30;55.30;;;;;;5061196;28;20124;-63
2022/07/13 08:46:06;;;;;;;1.17;0.40;;;25.30;55.60;;;;;;5069099;28;20357;-64
2022/07/13 08:48:36;;;;;;;5.65;0.60;;;25.30;55.50;;;;;;5064943;28;20060;-64
2022/07/13 08:51:03;;;;;;;2.17;0.55;;;25.20;56.40;;;;;;5065271;28;20028;-64
2022/07/13 08:53:29;;;;;;;1.60;0.43;;;25.20;56.40;;;;;;5067326;28;20370;-64
2022/07/13 08:55:56;;;;;;;1.15;0.70;;;25.30;56.70;;;;;;5059827;28;20047;-64
2022/07/13 08:58:22;;;;;;;2.75;0.65;;;25.50;56.90;;;;;;5065198;28;20036;-64
2022/07/13 09:00:49;;;;;;;2.28;0.45;;;25.60;55.10;;;;;;5064241;28;20086;-67
2022/07/13 09:03:15;;;;;;;7.60;0.90;;;25.30;55.90;;;;;;5049928;28;20522;-70
2022/07/13 09:05:41;;;;;;;8.82;0.93;;;25.20;56.70;;;;;;5070203;28;20036;-71
2022/07/13 09:08:09;;;;;;;5.13;0.77;;;25.30;56.10;;;;;;5067672;28;20135;-70
2022/07/13 09:10:55;;;;;;;1.38;0.30;;;25.40;56.50;;;;;;5063660;28;20050;-70
2022/07/13 09:13:56;;;;;;;0.40;0.40;;;25.60;55.90;;;;;;5063496;28;20136;-70
2022/07/13 09:16:22;;;;;;;3.03;0.30;;;25.80;55.50;;;;;;5028510;28;20070;-63
2022/07/13 09:18:54;;;;;;;0.73;0.35;;;26.00;54.70;;;;;;5054230;28;20040;-63
2022/07/13 09:21:22;;;;;;;0.28;0.28;;;26.00;56.00;;;;;;5065375;28;20094;-62
2022/07/13 09:23:55;;;;;;;1.58;0.40;;;26.20;55.60;;;;;;5061966;28;20079;-67
2022/07/13 09:26:22;;;;;;;0.60;0.60;;;26.20;55.90;;;;;;5056813;28;20024;-67
2022/07/13 09:28:50;;;;;;;1.70;0.50;;;26.30;55.20;;;;;;5067699;28;20066;-66
2022/07/13 09:31:17;;;;;;;0.38;0.30;;;26.30;55.80;;;;;;5071297;28;20063;-68
2022/07/13 09:33:44;;;;;;;1.48;0.38;;;26.50;55.80;;;;;;5069965;28;20045;-67
2022/07/13 09:36:18;;;;;;;1.25;0.40;;;26.60;52.20;;;;;;5062934;28;20062;-68
2022/07/13 09:38:44;;;;;;;0.45;0.35;;;26.70;51.20;;;;;;5062970;28;20501;-64
2022/07/13 09:41:23;;;;;;;0.77;0.50;;;26.70;51.00;;;;;;5068975;28;20043;-64
2022/07/13 09:46:52;;;;;;;0.75;0.32;;;26.70;49.70;;;;;;5066892;28;20173;-69
2022/07/13 09:49:18;;;;;;;4.07;0.77;;;26.60;50.00;;;;;;5071354;28;20032;-69
2022/07/13 09:51:45;;;;;;;0.57;0.40;;;26.70;50.00;;;;;;5069876;28;20079;-63
2022/07/13 09:54:12;;;;;;;0.50;0.32;;;26.60;49.80;;;;;;5048992;28;20041;-63
2022/07/13 09:56:47;;;;;;;2.08;0.38;;;26.70;48.10;;;;;;5070555;28;20135;-63
2022/07/13 09:59:14;;;;;;;0.30;0.30;;;26.80;47.50;;;;;;5075303;28;20560;-63
2022/07/13 10:01:40;;;;;;;0.75;0.50;;;26.90;46.50;;;;;;5068368;28;20861;-66
2022/07/13 10:04:08;;;;;;;0.75;0.45;;;26.90;47.50;;;;;;5057803;28;20155;-66
2022/07/13 10:06:34;;;;;;;0.45;0.35;;;26.90;49.30;;;;;;5065954;28;20078;-66
2022/07/13 10:09:01;;;;;;;2.63;0.63;;;27.10;48.60;;;;;;5064121;28;20044;-68
2022/07/13 10:11:27;;;;;;;0.50;0.50;;;27.10;49.10;;;;;;5067495;28;20115;-67
2022/07/13 10:13:55;;;;;;;0.55;0.40;;;27.00;49.40;;;;;;5071244;28;21196;-67
2022/07/13 10:16:20;;;;;;;1.30;0.43;;;27.00;49.40;;;;;;5066613;28;20032;-66
2022/07/13 10:18:47;;;;;;;0.60;0.57;;;26.90;49.00;;;;;;5066573;28;20035;-69
2022/07/13 10:21:25;;;;;;;0.50;0.50;;;26.80;49.50;;;;;;5061175;28;20040;-68
2022/07/13 10:23:51;;;;;;;0.95;0.75;;;26.80;49.50;;;;;;5070645;28;20051;-69
2022/07/13 10:26:22;;;;;;;7.93;0.82;;;26.80;49.90;;;;;;5063435;28;20048;-70
2022/07/13 10:29:04;;;;;;;1.88;0.40;;;26.70;51.10;;;;;;5065160;28;20650;-70
2022/07/13 10:31:33;;;;;;;1.48;0.40;;;26.80;49.90;;;;;;5067511;28;20488;-70
2022/07/13 10:34:00;;;;;;;3.65;0.52;;;26.90;50.50;;;;;;5071169;28;20047;-70
2022/07/13 10:36:51;;;;;;;3.75;0.40;;;27.10;48.80;;;;;;5070569;28;20131;-71
2022/07/13 10:39:22;;;;;;;0.77;0.68;;;27.20;48.70;;;;;;5049872;28;20401;-70
2022/07/13 10:42:06;;;;;;;2.35;0.50;;;27.30;47.70;;;;;;5064584;28;20044;-71
2022/07/13 10:44:36;;;;;;;0.82;0.43;;;27.30;49.30;;;;;;5061853;28;20037;-70
2022/07/13 10:47:04;;;;;;;0.38;0.30;;;27.50;46.90;;;;;;5054972;28;20064;-71
2022/07/13 10:49:32;;;;;;;1.98;0.35;;;27.40;49.80;;;;;;5056359;28;20040;-70
2022/07/13 10:55:04;;;;;;;0.40;0.30;;;27.80;46.80;;;;;;5071353;28;20036;-69
2022/07/13 10:57:30;;;;;;;1.95;0.55;;;27.70;46.80;;;;;;5055967;28;20404;-70
2022/07/13 11:00:19;;;;;;;1.70;0.50;;;27.70;47.80;;;;;;5062193;28;20033;-69
2022/07/13 11:02:48;;;;;;;0.65;0.50;;;27.80;46.70;;;;;;5073938;28;20048;-70
2022/07/13 11:05:17;;;;;;;1.05;0.40;;;27.90;47.40;;;;;;5070424;28;20396;-69
2022/07/13 11:07:45;;;;;;;0.73;0.38;;;27.90;47.40;;;;;;5076514;28;20123;-69
2022/07/13 11:10:40;;;;;;;1.50;0.45;;;28.00;47.20;;;;;;5075165;28;20036;-70
2022/07/13 11:13:12;;;;;;;0.63;0.30;;;27.90;46.90;;;;;;5061860;28;20115;-69
2022/07/13 11:15:50;;;;;;;0.60;0.40;;;27.90;47.20;;;;;;5065697;28;20043;-70
2022/07/13 11:18:22;;;;;;;3.72;0.40;;;27.90;45.40;;;;;;5072623;28;20097;-69
2022/07/13 11:20:56;;;;;;;;;;;27.90;47.10;;;;;;5073961;28;20429;-69
2022/07/13 11:26:22;;;;;;;1.00;0.50;;;28.10;48.70;;;;;;5069309;28;20082;-70
2022/07/13 11:29:09;;;;;;;0.17;0.17;;;28.10;48.60;;;;;;5075215;28;20036;-68
2022/07/13 11:31:36;;;;;;;1.17;0.40;;;28.10;45.70;;;;;;5076145;28;20032;-69
2022/07/13 11:34:01;;;;;;;1.15;0.60;;;28.00;47.00;;;;;;5078252;28;20047;-68
2022/07/13 11:36:28;;;;;;;1.05;0.40;;;27.80;47.00;;;;;;5082538;28;20567;-69
2022/07/13 11:38:53;;;;;;;1.45;0.35;;;27.70;49.10;;;;;;5084698;28;20032;-70
2022/07/13 11:41:20;;;;;;;5.05;0.30;;;27.90;48.00;;;;;;5066030;28;20037;-70
2022/07/13 11:43:50;;;;;;;2.60;0.32;;;28.10;48.40;;;;;;5079745;28;20158;-71
2022/07/13 11:46:26;;;;;;;4.78;0.82;;;28.20;47.60;;;;;;5076434;28;20075;-69
2022/07/13 11:49:05;;;;;;;1.80;0.40;;;28.20;47.60;;;;;;5074751;28;20475;-68
2022/07/13 11:51:32;;;;;;;5.20;0.50;;;28.20;44.70;;;;;;5071506;28;20037;-69
2022/07/13 11:54:08;;;;;;;2.80;0.20;;;28.30;44.60;;;;;;5070388;28;20043;-68
2022/07/13 11:56:34;;;;;;;2.92;0.40;;;28.30;45.30;;;;;;5069774;28;20040;-68
2022/07/13 11:59:00;;;;;;;0.68;0.45;;;28.50;45.50;;;;;;5067090;28;20058;-67
2022/07/13 12:01:25;;;;;;;3.15;0.40;;;28.50;44.80;;;;;;5069636;28;20029;-67
2022/07/13 12:03:51;;;;;;;0.45;0.28;;;28.60;44.60;;;;;;5071208;28;20086;-67
2022/07/13 12:06:18;;;;;;;3.83;0.30;;;28.60;43.50;;;;;;5075486;28;20028;-67
2022/07/13 12:08:45;;;;;;;1.10;0.50;;;28.60;44.10;;;;;;5076833;28;20110;-67
2022/07/13 12:11:18;;;;;;;0.43;0.20;;;28.70;44.00;;;;;;5077587;28;20730;-67
2022/07/13 12:13:45;;;;;;;1.60;0.50;;;28.70;42.60;;;;;;5076240;28;20032;-67
2022/07/13 12:16:13;;;;;;;1.60;0.38;;;28.80;43.90;;;;;;5074877;28;20491;-68
2022/07/13 12:18:58;;;;;;;0.73;0.30;;;28.90;43.60;;;;;;5048358;28;20516;-67
2022/07/13 12:21:24;;;;;;;1.40;0.30;;;28.90;44.00;;;;;;5069339;28;20032;-67
2022/07/13 12:23:51;;;;;;;0.43;0.43;;;28.80;44.60;;;;;;5073042;28;20467;-67
2022/07/13 12:26:16;;;;;;;0.30;0.30;;;28.80;44.30;;;;;;5074754;28;20381;-67
2022/07/13 12:28:43;;;;;;;1.45;0.73;;;28.90;43.50;;;;;;5077537;28;20036;-67
2022/07/13 12:31:09;;;;;;;2.30;0.30;;;28.90;43.60;;;;;;5080108;28;20047;-68
2022/07/13 12:33:43;;;;;;;0.40;0.40;;;29.00;42.20;;;;;;5072757;28;20028;-67
2022/07/13 12:36:10;;;;;;;4.30;0.20;;;28.90;42.10;;;;;;5071717;28;20074;-67
2022/07/13 12:38:36;;;;;;;0.30;0.20;;;28.90;40.20;;;;;;5075213;28;20031;-66
2022/07/13 12:41:03;;;;;;;0.65;0.30;;;28.90;40.70;;;;;;5071328;28;20442;-67
2022/07/13 12:43:30;;;;;;;1.88;0.30;;;29.00;41.40;;;;;;5075480;28;20031;-67
2022/07/13 12:46:01;;;;;;;2.75;0.55;;;29.00;42.10;;;;;;5074572;28;20024;-67
2022/07/13 12:48:34;;;;;;;0.90;0.20;;;29.10;41.00;;;;;;5056506;28;20371;-67
2022/07/13 12:51:02;;;;;;;0.77;0.30;;;29.10;42.70;;;;;;5070127;28;20455;-67
2022/07/13 12:53:51;;;;;;;0.20;0.20;;;29.10;41.80;;;;;;5077015;28;20032;-68
2022/07/13 12:56:19;;;;;;;0.60;0.38;;;29.20;41.60;;;;;;5066560;28;20672;-68
2022/07/13 12:58:50;;;;;;;0.13;0.10;;;29.20;41.50;;;;;;5068534;28;20036;-68
2022/07/13 13:01:51;;;;;;;0.47;0.10;;;29.40;41.20;;;;;;5064451;28;20051;-66
2022/07/13 13:04:17;;;;;;;0.90;0.30;;;29.40;39.30;;;;;;5019732;28;20057;-67